sensor_id;sensor_type;location;lat;lon;timestamp;temperature;humidity
1626;DHT22;806;48.770;9.156;2024-03-08T00:00:33;5.60;99.90
1626;DHT22;806;48.770;9.156;2024-03-08T00:03:00;5.70;99.90
1626;DHT22;806;48.770;9.156;2024-03-08T00:05:28;5.60;99.90
1626;DHT22;806;48.770;9.156;2024-03-08T00:07:57;5.50;99.90
1626;DHT22;806;48.770;9.156;2024-03-08T00:10:26;5.40;1.00
1626;DHT22;806;48.770;9.156;2024-03-08T00:12:54;5.40;1.00
1626;DHT22;806;48.770;9.156;2024-03-08T00:15:23;5.40;1.00
1626;DHT22;806;48.770;9.156;2024-03-08T00:17:50;5.40;1.00
1626;DHT22;806;48.770;9.156;2024-03-08T00:20:17;5.30;99.90
1626;DHT22;806;48.770;9.156;2024-03-08T00:22:44;5.30;1.00
1626;DHT22;806;48.770;9.156;2024-03-08T00:25:13;5.40;1.00
1626;DHT22;806;48.770;9.156;2024-03-08T00:27:40;5.50;1.00
1626;DHT22;806;48.770;9.156;2024-03-08T00:30:08;5.50;1.00
1626;DHT22;806;48.770;9.156;2024-03-08T00:32:35;5.50;99.90
1626;DHT22;806;48.770;9.156;2024-03-08T00:35:02;5.30;99.90
1626;DHT22;806;48.770;9.156;2024-03-08T00:37:30;5.10;1.00
1626;DHT22;806;48.770;9.156;2024-03-08T00:39:57;4.90;1.00
1626;DHT22;806;48.770;9.156;2024-03-08T00:42:25;4.70;1.00
1626;DHT22;806;48.770;9.156;2024-03-08T00:44:53;4.70;1.00
1626;DHT22;806;48.770;9.156;2024-03-08T00:47:20;4.70;1.00
1626;DHT22;806;48.770;9.156;2024-03-08T00:49:46;4.70;1.00
1626;DHT22;806;48.770;9.156;2024-03-08T00:52:14;4.70;1.00
1626;DHT22;806;48.770;9.156;2024-03-08T00:54:41;4.50;1.00
1626;DHT22;806;48.770;9.156;2024-03-08T00:57:09;4.50;1.00
1626;DHT22;806;48.770;9.156;2024-03-08T00:59:39;4.50;1.00
1626;DHT22;806;48.770;9.156;2024-03-08T01:02:06;4.60;1.00
1626;DHT22;806;48.770;9.156;2024-03-08T01:04:34;4.70;1.00
1626;DHT22;806;48.770;9.156;2024-03-08T01:07:01;4.70;1.00
1626;DHT22;806;48.770;9.156;2024-03-08T01:09:28;4.60;1.00
1626;DHT22;806;48.770;9.156;2024-03-08T01:11:55;4.50;1.00
1626;DHT22;806;48.770;9.156;2024-03-08T01:14:23;4.50;1.00
1626;DHT22;806;48.770;9.156;2024-03-08T01:16:55;4.50;1.00
1626;DHT22;806;48.770;9.156;2024-03-08T01:19:25;4.40;1.00
1626;DHT22;806;48.770;9.156;2024-03-08T01:21:52;4.40;1.00
1626;DHT22;806;48.770;9.156;2024-03-08T01:24:21;4.40;1.00
1626;DHT22;806;48.770;9.156;2024-03-08T01:26:49;4.30;1.00
1626;DHT22;806;48.770;9.156;2024-03-08T01:29:16;4.40;1.00
1626;DHT22;806;48.770;9.156;2024-03-08T01:31:43;4.30;1.00
1626;DHT22;806;48.770;9.156;2024-03-08T01:34:11;4.30;1.00
1626;DHT22;806;48.770;9.156;2024-03-08T01:36:38;4.40;1.00
1626;DHT22;806;48.770;9.156;2024-03-08T01:39:06;4.40;1.00
1626;DHT22;806;48.770;9.156;2024-03-08T01:41:33;4.40;1.00
1626;DHT22;806;48.770;9.156;2024-03-08T01:44:01;4.40;1.00
1626;DHT22;806;48.770;9.156;2024-03-08T01:46:29;4.30;1.00
1626;DHT22;806;48.770;9.156;2024-03-08T01:48:57;4.20;1.00
1626;DHT22;806;48.770;9.156;2024-03-08T01:51:25;4.10;1.00
1626;DHT22;806;48.770;9.156;2024-03-08T01:53:56;4.10;1.00
1626;DHT22;806;48.770;9.156;2024-03-08T01:56:24;4.20;1.00
1626;DHT22;806;48.770;9.156;2024-03-08T01:58:52;4.30;1.00
1626;DHT22;806;48.770;9.156;2024-03-08T02:01:19;4.30;1.00
1626;DHT22;806;48.770;9.156;2024-03-08T02:03:46;4.30;1.00
1626;DHT22;806;48.770;9.156;2024-03-08T02:06:13;4.30;1.00
1626;DHT22;806;48.770;9.156;2024-03-08T02:08:43;4.40;1.00
1626;DHT22;806;48.770;9.156;2024-03-08T02:11:11;4.40;1.00
1626;DHT22;806;48.770;9.156;2024-03-08T02:13:39;4.30;1.00
1626;DHT22;806;48.770;9.156;2024-03-08T02:16:06;4.20;1.00
1626;DHT22;806;48.770;9.156;2024-03-08T02:18:34;4.20;1.00
1626;DHT22;806;48.770;9.156;2024-03-08T02:21:04;4.10;1.00
1626;DHT22;806;48.770;9.156;2024-03-08T02:23:32;4.10;1.00
1626;DHT22;806;48.770;9.156;2024-03-08T02:26:00;4.10;1.00
1626;DHT22;806;48.770;9.156;2024-03-08T02:28:27;4.00;1.00
1626;DHT22;806;48.770;9.156;2024-03-08T02:30:55;4.00;1.00
1626;DHT22;806;48.770;9.156;2024-03-08T02:33:22;4.00;1.00
1626;DHT22;806;48.770;9.156;2024-03-08T02:35:50;3.90;1.00
1626;DHT22;806;48.770;9.156;2024-03-08T02:38:19;3.90;1.00
1626;DHT22;806;48.770;9.156;2024-03-08T02:40:48;3.90;1.00
1626;DHT22;806;48.770;9.156;2024-03-08T02:43:16;3.80;1.00
1626;DHT22;806;48.770;9.156;2024-03-08T02:45:43;3.60;1.00
1626;DHT22;806;48.770;9.156;2024-03-08T02:48:12;3.50;1.00
1626;DHT22;806;48.770;9.156;2024-03-08T02:50:39;3.40;1.00
1626;DHT22;806;48.770;9.156;2024-03-08T02:53:08;3.60;1.00
1626;DHT22;806;48.770;9.156;2024-03-08T02:55:37;3.60;1.00
1626;DHT22;806;48.770;9.156;2024-03-08T02:58:04;3.60;1.00
1626;DHT22;806;48.770;9.156;2024-03-08T03:00:34;3.60;1.00
1626;DHT22;806;48.770;9.156;2024-03-08T03:03:01;3.70;1.00
1626;DHT22;806;48.770;9.156;2024-03-08T03:05:29;3.60;1.00
1626;DHT22;806;48.770;9.156;2024-03-08T03:07:56;3.60;1.00
1626;DHT22;806;48.770;9.156;2024-03-08T03:10:24;3.70;1.00
1626;DHT22;806;48.770;9.156;2024-03-08T03:12:52;3.60;1.00
1626;DHT22;806;48.770;9.156;2024-03-08T03:15:19;3.70;1.00
1626;DHT22;806;48.770;9.156;2024-03-08T03:17:46;3.70;1.00
1626;DHT22;806;48.770;9.156;2024-03-08T03:20:14;3.60;1.00
1626;DHT22;806;48.770;9.156;2024-03-08T03:22:48;3.70;1.00
1626;DHT22;806;48.770;9.156;2024-03-08T03:25:18;3.80;1.00
1626;DHT22;806;48.770;9.156;2024-03-08T03:27:49;3.80;1.00
1626;DHT22;806;48.770;9.156;2024-03-08T03:30:17;3.90;1.00
1626;DHT22;806;48.770;9.156;2024-03-08T03:32:47;3.90;99.90
1626;DHT22;806;48.770;9.156;2024-03-08T03:35:16;3.80;1.00
1626;DHT22;806;48.770;9.156;2024-03-08T03:37:43;3.70;1.00
1626;DHT22;806;48.770;9.156;2024-03-08T03:40:17;3.90;1.00
1626;DHT22;806;48.770;9.156;2024-03-08T03:42:45;4.00;1.00
1626;DHT22;806;48.770;9.156;2024-03-08T03:45:12;4.10;1.00
1626;DHT22;806;48.770;9.156;2024-03-08T03:47:42;4.10;1.00
1626;DHT22;806;48.770;9.156;2024-03-08T03:50:09;4.10;1.00
1626;DHT22;806;48.770;9.156;2024-03-08T03:52:36;4.00;1.00
1626;DHT22;806;48.770;9.156;2024-03-08T03:55:04;4.00;1.00
1626;DHT22;806;48.770;9.156;2024-03-08T03:57:31;3.90;1.00
1626;DHT22;806;48.770;9.156;2024-03-08T03:59:58;3.80;1.00
1626;DHT22;806;48.770;9.156;2024-03-08T04:02:25;3.80;1.00
1626;DHT22;806;48.770;9.156;2024-03-08T04:04:54;3.70;1.00
1626;DHT22;806;48.770;9.156;2024-03-08T04:07:21;3.70;1.00
1626;DHT22;806;48.770;9.156;2024-03-08T04:09:48;3.70;1.00
1626;DHT22;806;48.770;9.156;2024-03-08T04:12:15;3.70;1.00
1626;DHT22;806;48.770;9.156;2024-03-08T04:14:42;3.70;1.00
1626;DHT22;806;48.770;9.156;2024-03-08T04:17:09;3.60;1.00
1626;DHT22;806;48.770;9.156;2024-03-08T04:19:38;3.60;1.00
1626;DHT22;806;48.770;9.156;2024-03-08T04:22:07;3.50;1.00
1626;DHT22;806;48.770;9.156;2024-03-08T04:24:34;3.50;1.00
1626;DHT22;806;48.770;9.156;2024-03-08T04:27:01;3.60;1.00
1626;DHT22;806;48.770;9.156;2024-03-08T04:29:27;3.60;1.00
1626;DHT22;806;48.770;9.156;2024-03-08T04:31:54;3.50;1.00
1626;DHT22;806;48.770;9.156;2024-03-08T04:34:21;3.60;1.00
1626;DHT22;806;48.770;9.156;2024-03-08T04:36:48;3.60;1.00
1626;DHT22;806;48.770;9.156;2024-03-08T04:39:16;3.50;1.00
1626;DHT22;806;48.770;9.156;2024-03-08T04:41:44;3.50;1.00
1626;DHT22;806;48.770;9.156;2024-03-08T04:44:11;3.40;1.00
1626;DHT22;806;48.770;9.156;2024-03-08T04:46:39;3.40;1.00
1626;DHT22;806;48.770;9.156;2024-03-08T04:49:06;3.30;1.00
1626;DHT22;806;48.770;9.156;2024-03-08T04:51:34;3.30;1.00
1626;DHT22;806;48.770;9.156;2024-03-08T04:54:00;3.20;1.00
1626;DHT22;806;48.770;9.156;2024-03-08T04:56:29;3.20;1.00
1626;DHT22;806;48.770;9.156;2024-03-08T04:58:56;3.30;1.00
1626;DHT22;806;48.770;9.156;2024-03-08T05:01:23;3.30;1.00
1626;DHT22;806;48.770;9.156;2024-03-08T05:03:50;3.30;1.00
1626;DHT22;806;48.770;9.156;2024-03-08T05:06:19;3.60;1.00
1626;DHT22;806;48.770;9.156;2024-03-08T05:08:46;3.60;1.00
1626;DHT22;806;48.770;9.156;2024-03-08T05:11:13;3.40;1.00
1626;DHT22;806;48.770;9.156;2024-03-08T05:13:42;3.50;1.00
1626;DHT22;806;48.770;9.156;2024-03-08T05:16:09;3.40;1.00
1626;DHT22;806;48.770;9.156;2024-03-08T05:18:36;3.40;1.00
1626;DHT22;806;48.770;9.156;2024-03-08T05:21:03;3.40;1.00
1626;DHT22;806;48.770;9.156;2024-03-08T05:23:30;3.30;1.00
1626;DHT22;806;48.770;9.156;2024-03-08T05:25:57;3.30;1.00
1626;DHT22;806;48.770;9.156;2024-03-08T05:28:23;3.30;1.00
1626;DHT22;806;48.770;9.156;2024-03-08T05:30:52;3.30;1.00
1626;DHT22;806;48.770;9.156;2024-03-08T05:33:22;3.20;1.00
1626;DHT22;806;48.770;9.156;2024-03-08T05:35:49;3.30;1.00
1626;DHT22;806;48.770;9.156;2024-03-08T05:38:17;3.30;1.00
1626;DHT22;806;48.770;9.156;2024-03-08T05:40:45;3.40;1.00
1626;DHT22;806;48.770;9.156;2024-03-08T05:43:14;3.40;1.00
1626;DHT22;806;48.770;9.156;2024-03-08T05:45:45;3.30;1.00
1626;DHT22;806;48.770;9.156;2024-03-08T05:48:13;3.40;1.00
1626;DHT22;806;48.770;9.156;2024-03-08T05:50:40;3.30;1.00
1626;DHT22;806;48.770;9.156;2024-03-08T05:53:09;3.20;1.00
1626;DHT22;806;48.770;9.156;2024-03-08T05:55:35;3.10;1.00
1626;DHT22;806;48.770;9.156;2024-03-08T05:58:02;3.20;1.00
1626;DHT22;806;48.770;9.156;2024-03-08T06:00:29;3.20;1.00
1626;DHT22;806;48.770;9.156;2024-03-08T06:02:56;3.10;1.00
1626;DHT22;806;48.770;9.156;2024-03-08T06:05:25;3.00;1.00
1626;DHT22;806;48.770;9.156;2024-03-08T06:07:52;3.00;1.00
1626;DHT22;806;48.770;9.156;2024-03-08T06:10:20;3.20;1.00
1626;DHT22;806;48.770;9.156;2024-03-08T06:12:47;3.40;1.00
1626;DHT22;806;48.770;9.156;2024-03-08T06:15:14;3.50;99.90
1626;DHT22;806;48.770;9.156;2024-03-08T06:17:41;3.50;99.90
1626;DHT22;806;48.770;9.156;2024-03-08T06:20:09;3.50;1.00
1626;DHT22;806;48.770;9.156;2024-03-08T06:22:40;3.40;1.00
1626;DHT22;806;48.770;9.156;2024-03-08T06:25:07;3.30;1.00
1626;DHT22;806;48.770;9.156;2024-03-08T06:27:35;3.30;1.00
1626;DHT22;806;48.770;9.156;2024-03-08T06:30:06;3.30;1.00
1626;DHT22;806;48.770;9.156;2024-03-08T06:32:35;3.30;1.00
1626;DHT22;806;48.770;9.156;2024-03-08T06:35:03;3.30;1.00
1626;DHT22;806;48.770;9.156;2024-03-08T06:37:31;3.40;1.00
1626;DHT22;806;48.770;9.156;2024-03-08T06:40:00;3.40;99.90
1626;DHT22;806;48.770;9.156;2024-03-08T06:42:28;3.50;1.00
1626;DHT22;806;48.770;9.156;2024-03-08T06:44:59;3.50;1.00
1626;DHT22;806;48.770;9.156;2024-03-08T06:47:30;3.30;1.00
1626;DHT22;806;48.770;9.156;2024-03-08T06:49:57;3.30;1.00
1626;DHT22;806;48.770;9.156;2024-03-08T06:52:24;3.30;1.00
1626;DHT22;806;48.770;9.156;2024-03-08T06:54:51;3.40;1.00
1626;DHT22;806;48.770;9.156;2024-03-08T06:57:19;3.40;1.00
1626;DHT22;806;48.770;9.156;2024-03-08T06:59:47;3.50;1.00
1626;DHT22;806;48.770;9.156;2024-03-08T07:02:14;3.60;1.00
1626;DHT22;806;48.770;9.156;2024-03-08T07:04:41;3.60;1.00
1626;DHT22;806;48.770;9.156;2024-03-08T07:07:08;3.80;1.00
1626;DHT22;806;48.770;9.156;2024-03-08T07:09:35;3.90;99.90
1626;DHT22;806;48.770;9.156;2024-03-08T07:12:02;4.00;1.00
1626;DHT22;806;48.770;9.156;2024-03-08T07:14:31;4.10;1.00
1626;DHT22;806;48.770;9.156;2024-03-08T07:16:57;4.30;99.90
1626;DHT22;806;48.770;9.156;2024-03-08T07:19:24;4.40;1.00
1626;DHT22;806;48.770;9.156;2024-03-08T07:21:54;4.30;99.90
1626;DHT22;806;48.770;9.156;2024-03-08T07:24:21;4.40;99.90
1626;DHT22;806;48.770;9.156;2024-03-08T07:27:03;4.40;99.90
1626;DHT22;806;48.770;9.156;2024-03-08T07:29:32;4.30;99.90
1626;DHT22;806;48.770;9.156;2024-03-08T07:31:59;4.30;99.90
1626;DHT22;806;48.770;9.156;2024-03-08T07:34:38;4.20;99.90
1626;DHT22;806;48.770;9.156;2024-03-08T07:37:05;4.10;1.00
1626;DHT22;806;48.770;9.156;2024-03-08T07:39:37;4.30;1.00
1626;DHT22;806;48.770;9.156;2024-03-08T07:42:05;4.40;1.00
1626;DHT22;806;48.770;9.156;2024-03-08T07:44:37;4.50;1.00
1626;DHT22;806;48.770;9.156;2024-03-08T07:47:04;4.70;99.90
1626;DHT22;806;48.770;9.156;2024-03-08T07:49:33;4.80;99.90
1626;DHT22;806;48.770;9.156;2024-03-08T07:52:00;4.90;99.90
1626;DHT22;806;48.770;9.156;2024-03-08T07:54:27;5.10;1.00
1626;DHT22;806;48.770;9.156;2024-03-08T07:56:54;5.10;99.90
1626;DHT22;806;48.770;9.156;2024-03-08T07:59:20;5.10;99.90
1626;DHT22;806;48.770;9.156;2024-03-08T08:01:49;5.00;1.00
1626;DHT22;806;48.770;9.156;2024-03-08T08:04:16;5.10;99.90
1626;DHT22;806;48.770;9.156;2024-03-08T08:06:43;5.00;99.90
1626;DHT22;806;48.770;9.156;2024-03-08T08:09:10;4.90;99.90
1626;DHT22;806;48.770;9.156;2024-03-08T08:11:40;4.80;1.00
1626;DHT22;806;48.770;9.156;2024-03-08T08:14:09;4.70;5.00
1626;DHT22;806;48.770;9.156;2024-03-08T08:16:36;4.90;99.90
1626;DHT22;806;48.770;9.156;2024-03-08T08:19:04;5.00;1.00
1626;DHT22;806;48.770;9.156;2024-03-08T08:21:34;5.00;99.90
1626;DHT22;806;48.770;9.156;2024-03-08T08:24:02;5.20;1.00
1626;DHT22;806;48.770;9.156;2024-03-08T08:26:29;5.00;1.00
1626;DHT22;806;48.770;9.156;2024-03-08T08:28:56;5.00;99.90
1626;DHT22;806;48.770;9.156;2024-03-08T08:31:23;4.80;1.00
1626;DHT22;806;48.770;9.156;2024-03-08T08:33:50;4.60;38.00
1626;DHT22;806;48.770;9.156;2024-03-08T08:36:23;4.60;1.00
1626;DHT22;806;48.770;9.156;2024-03-08T08:38:49;4.60;14.60
1626;DHT22;806;48.770;9.156;2024-03-08T08:41:19;4.70;1.00
1626;DHT22;806;48.770;9.156;2024-03-08T08:43:47;4.70;1.00
1626;DHT22;806;48.770;9.156;2024-03-08T08:46:17;4.60;1.00
1626;DHT22;806;48.770;9.156;2024-03-08T08:48:43;4.50;1.00
1626;DHT22;806;48.770;9.156;2024-03-08T08:51:12;4.50;99.90
1626;DHT22;806;48.770;9.156;2024-03-08T08:53:40;4.80;99.90
1626;DHT22;806;48.770;9.156;2024-03-08T08:56:08;5.10;1.00
1626;DHT22;806;48.770;9.156;2024-03-08T08:58:38;5.00;99.90
1626;DHT22;806;48.770;9.156;2024-03-08T09:01:05;5.00;1.00
1626;DHT22;806;48.770;9.156;2024-03-08T09:03:33;5.00;1.00
1626;DHT22;806;48.770;9.156;2024-03-08T09:06:00;5.10;99.90
1626;DHT22;806;48.770;9.156;2024-03-08T09:08:29;5.20;99.90
1626;DHT22;806;48.770;9.156;2024-03-08T09:10:58;5.20;1.00
1626;DHT22;806;48.770;9.156;2024-03-08T09:13:26;5.20;35.00
1626;DHT22;806;48.770;9.156;2024-03-08T09:15:53;5.00;1.00
1626;DHT22;806;48.770;9.156;2024-03-08T09:18:20;5.10;99.90
1626;DHT22;806;48.770;9.156;2024-03-08T09:20:47;5.30;99.90
1626;DHT22;806;48.770;9.156;2024-03-08T09:23:14;5.40;99.90
1626;DHT22;806;48.770;9.156;2024-03-08T09:25:43;5.20;99.90
1626;DHT22;806;48.770;9.156;2024-03-08T09:28:11;5.20;99.90
1626;DHT22;806;48.770;9.156;2024-03-08T09:30:41;5.40;99.90
1626;DHT22;806;48.770;9.156;2024-03-08T09:33:08;5.50;99.90
1626;DHT22;806;48.770;9.156;2024-03-08T09:35:35;5.60;99.90
1626;DHT22;806;48.770;9.156;2024-03-08T09:38:02;5.60;99.90
1626;DHT22;806;48.770;9.156;2024-03-08T09:40:30;5.50;99.90
1626;DHT22;806;48.770;9.156;2024-03-08T09:42:58;5.50;99.90
1626;DHT22;806;48.770;9.156;2024-03-08T09:45:26;5.40;99.90
1626;DHT22;806;48.770;9.156;2024-03-08T09:47:55;5.60;99.90
1626;DHT22;806;48.770;9.156;2024-03-08T09:50:23;5.80;99.90
1626;DHT22;806;48.770;9.156;2024-03-08T09:52:51;5.80;99.90
1626;DHT22;806;48.770;9.156;2024-03-08T09:55:19;5.80;99.90
1626;DHT22;806;48.770;9.156;2024-03-08T09:57:48;5.80;99.90
1626;DHT22;806;48.770;9.156;2024-03-08T10:00:43;6.00;99.90
1626;DHT22;806;48.770;9.156;2024-03-08T10:03:11;6.10;99.90
1626;DHT22;806;48.770;9.156;2024-03-08T10:05:40;6.00;99.90
1626;DHT22;806;48.770;9.156;2024-03-08T10:08:07;6.10;99.90
1626;DHT22;806;48.770;9.156;2024-03-08T10:10:35;6.10;99.90
1626;DHT22;806;48.770;9.156;2024-03-08T10:13:01;6.10;99.90
1626;DHT22;806;48.770;9.156;2024-03-08T10:15:32;6.20;99.90
1626;DHT22;806;48.770;9.156;2024-03-08T10:18:01;6.10;99.90
1626;DHT22;806;48.770;9.156;2024-03-08T10:20:30;6.10;99.90
1626;DHT22;806;48.770;9.156;2024-03-08T10:22:59;6.20;1.00
1626;DHT22;806;48.770;9.156;2024-03-08T10:25:26;6.40;99.90
1626;DHT22;806;48.770;9.156;2024-03-08T10:27:53;6.50;99.90
1626;DHT22;806;48.770;9.156;2024-03-08T10:30:20;6.70;99.90
1626;DHT22;806;48.770;9.156;2024-03-08T10:32:47;6.50;99.90
1626;DHT22;806;48.770;9.156;2024-03-08T10:35:16;6.60;99.90
1626;DHT22;806;48.770;9.156;2024-03-08T10:37:46;6.40;99.90
1626;DHT22;806;48.770;9.156;2024-03-08T10:40:17;6.60;1.00
1626;DHT22;806;48.770;9.156;2024-03-08T10:42:53;6.50;99.90
1626;DHT22;806;48.770;9.156;2024-03-08T10:45:30;6.60;99.90
1626;DHT22;806;48.770;9.156;2024-03-08T10:48:08;6.50;99.90
1626;DHT22;806;48.770;9.156;2024-03-08T10:50:38;6.30;1.00
1626;DHT22;806;48.770;9.156;2024-03-08T10:53:06;6.60;1.00
1626;DHT22;806;48.770;9.156;2024-03-08T10:55:39;6.70;99.90
1626;DHT22;806;48.770;9.156;2024-03-08T10:58:07;6.70;99.90
1626;DHT22;806;48.770;9.156;2024-03-08T11:00:34;6.50;99.90
1626;DHT22;806;48.770;9.156;2024-03-08T11:03:03;6.60;99.90
1626;DHT22;806;48.770;9.156;2024-03-08T11:05:38;6.80;11.80
1626;DHT22;806;48.770;9.156;2024-03-08T11:08:16;6.80;99.90
1626;DHT22;806;48.770;9.156;2024-03-08T11:10:48;7.10;99.90
1626;DHT22;806;48.770;9.156;2024-03-08T11:13:36;7.60;99.90
1626;DHT22;806;48.770;9.156;2024-03-08T11:16:07;7.80;99.90
1626;DHT22;806;48.770;9.156;2024-03-08T11:18:35;8.00;99.90
1626;DHT22;806;48.770;9.156;2024-03-08T11:21:06;8.00;99.90
1626;DHT22;806;48.770;9.156;2024-03-08T11:23:39;8.10;99.90
1626;DHT22;806;48.770;9.156;2024-03-08T11:26:18;7.90;99.90
1626;DHT22;806;48.770;9.156;2024-03-08T11:28:45;7.90;99.90
1626;DHT22;806;48.770;9.156;2024-03-08T11:31:23;8.00;99.90
1626;DHT22;806;48.770;9.156;2024-03-08T11:33:50;8.00;99.90
1626;DHT22;806;48.770;9.156;2024-03-08T11:36:22;8.10;99.90
1626;DHT22;806;48.770;9.156;2024-03-08T11:38:50;8.40;99.90
1626;DHT22;806;48.770;9.156;2024-03-08T11:41:19;8.60;99.90
1626;DHT22;806;48.770;9.156;2024-03-08T11:43:47;8.50;99.90
1626;DHT22;806;48.770;9.156;2024-03-08T11:46:16;8.50;99.90
1626;DHT22;806;48.770;9.156;2024-03-08T11:48:48;8.60;99.90
1626;DHT22;806;48.770;9.156;2024-03-08T11:51:18;8.50;99.90
1626;DHT22;806;48.770;9.156;2024-03-08T11:53:49;8.70;99.90
1626;DHT22;806;48.770;9.156;2024-03-08T11:56:16;8.90;99.90
1626;DHT22;806;48.770;9.156;2024-03-08T11:58:53;8.80;99.90
1626;DHT22;806;48.770;9.156;2024-03-08T12:01:23;8.80;99.90
1626;DHT22;806;48.770;9.156;2024-03-08T12:03:53;9.10;99.90
1626;DHT22;806;48.770;9.156;2024-03-08T12:06:24;9.00;99.90
1626;DHT22;806;48.770;9.156;2024-03-08T12:08:52;9.00;99.90
1626;DHT22;806;48.770;9.156;2024-03-08T12:11:20;9.20;99.90
1626;DHT22;806;48.770;9.156;2024-03-08T12:13:49;9.20;99.90
1626;DHT22;806;48.770;9.156;2024-03-08T12:16:19;9.20;99.90
1626;DHT22;806;48.770;9.156;2024-03-08T12:18:47;9.30;99.90
1626;DHT22;806;48.770;9.156;2024-03-08T12:21:14;9.40;99.90
1626;DHT22;806;48.770;9.156;2024-03-08T12:23:45;9.20;99.90
1626;DHT22;806;48.770;9.156;2024-03-08T12:26:18;9.40;99.90
1626;DHT22;806;48.770;9.156;2024-03-08T12:28:50;9.30;99.90
1626;DHT22;806;48.770;9.156;2024-03-08T12:31:17;9.10;99.90
1626;DHT22;806;48.770;9.156;2024-03-08T12:33:49;9.20;99.90
1626;DHT22;806;48.770;9.156;2024-03-08T12:36:16;9.20;99.90
1626;DHT22;806;48.770;9.156;2024-03-08T12:38:45;9.00;99.90
1626;DHT22;806;48.770;9.156;2024-03-08T12:41:13;8.90;99.90
1626;DHT22;806;48.770;9.156;2024-03-08T12:43:41;9.20;99.90
1626;DHT22;806;48.770;9.156;2024-03-08T12:46:11;9.40;99.90
1626;DHT22;806;48.770;9.156;2024-03-08T12:48:38;9.30;99.90
1626;DHT22;806;48.770;9.156;2024-03-08T12:51:07;9.50;99.90
1626;DHT22;806;48.770;9.156;2024-03-08T12:53:34;9.50;99.90
1626;DHT22;806;48.770;9.156;2024-03-08T12:56:01;9.70;99.90
1626;DHT22;806;48.770;9.156;2024-03-08T12:58:33;9.50;99.90
1626;DHT22;806;48.770;9.156;2024-03-08T13:01:01;9.50;99.90
1626;DHT22;806;48.770;9.156;2024-03-08T13:03:30;9.70;99.90
1626;DHT22;806;48.770;9.156;2024-03-08T13:05:57;9.30;99.90
1626;DHT22;806;48.770;9.156;2024-03-08T13:08:24;9.50;99.90
1626;DHT22;806;48.770;9.156;2024-03-08T13:10:53;9.80;99.90
1626;DHT22;806;48.770;9.156;2024-03-08T13:13:20;9.90;99.90
1626;DHT22;806;48.770;9.156;2024-03-08T13:15:47;10.00;99.90
1626;DHT22;806;48.770;9.156;2024-03-08T13:18:15;10.10;99.90
1626;DHT22;806;48.770;9.156;2024-03-08T13:20:43;9.70;99.90
1626;DHT22;806;48.770;9.156;2024-03-08T13:23:14;9.40;99.90
1626;DHT22;806;48.770;9.156;2024-03-08T13:25:43;9.40;99.90
1626;DHT22;806;48.770;9.156;2024-03-08T13:28:11;9.50;99.90
1626;DHT22;806;48.770;9.156;2024-03-08T13:30:38;9.30;99.90
1626;DHT22;806;48.770;9.156;2024-03-08T13:33:05;9.30;99.90
1626;DHT22;806;48.770;9.156;2024-03-08T13:35:34;9.40;99.90
1626;DHT22;806;48.770;9.156;2024-03-08T13:38:00;9.30;99.90
1626;DHT22;806;48.770;9.156;2024-03-08T13:40:29;9.50;99.90
1626;DHT22;806;48.770;9.156;2024-03-08T13:42:56;9.60;99.90
1626;DHT22;806;48.770;9.156;2024-03-08T13:45:26;9.80;99.90
1626;DHT22;806;48.770;9.156;2024-03-08T13:47:53;9.70;99.90
1626;DHT22;806;48.770;9.156;2024-03-08T13:50:20;9.80;99.90
1626;DHT22;806;48.770;9.156;2024-03-08T13:52:49;9.60;99.90
1626;DHT22;806;48.770;9.156;2024-03-08T13:55:16;9.40;99.90
1626;DHT22;806;48.770;9.156;2024-03-08T13:57:43;9.40;99.90
1626;DHT22;806;48.770;9.156;2024-03-08T14:00:12;9.50;99.90
1626;DHT22;806;48.770;9.156;2024-03-08T14:02:40;9.50;99.90
1626;DHT22;806;48.770;9.156;2024-03-08T14:05:08;9.20;99.90
1626;DHT22;806;48.770;9.156;2024-03-08T14:07:35;9.00;99.90
1626;DHT22;806;48.770;9.156;2024-03-08T14:10:04;9.00;99.90
1626;DHT22;806;48.770;9.156;2024-03-08T14:12:32;9.20;99.90
1626;DHT22;806;48.770;9.156;2024-03-08T14:15:00;9.20;99.90
1626;DHT22;806;48.770;9.156;2024-03-08T14:17:29;9.40;99.90
1626;DHT22;806;48.770;9.156;2024-03-08T14:19:56;9.50;99.90
1626;DHT22;806;48.770;9.156;2024-03-08T14:22:24;9.70;99.90
1626;DHT22;806;48.770;9.156;2024-03-08T14:24:51;9.60;99.90
1626;DHT22;806;48.770;9.156;2024-03-08T14:27:22;9.60;99.90
1626;DHT22;806;48.770;9.156;2024-03-08T14:29:49;9.60;99.90
1626;DHT22;806;48.770;9.156;2024-03-08T14:32:17;9.50;99.90
1626;DHT22;806;48.770;9.156;2024-03-08T14:34:45;9.60;99.90
1626;DHT22;806;48.770;9.156;2024-03-08T14:37:13;9.50;99.90
1626;DHT22;806;48.770;9.156;2024-03-08T14:39:40;9.60;99.90
1626;DHT22;806;48.770;9.156;2024-03-08T14:42:07;9.70;99.90
1626;DHT22;806;48.770;9.156;2024-03-08T14:44:40;9.70;99.90
1626;DHT22;806;48.770;9.156;2024-03-08T14:47:07;9.70;99.90
1626;DHT22;806;48.770;9.156;2024-03-08T14:49:34;9.80;99.90
1626;DHT22;806;48.770;9.156;2024-03-08T14:52:04;9.80;99.90
1626;DHT22;806;48.770;9.156;2024-03-08T14:54:51;9.90;99.90
1626;DHT22;806;48.770;9.156;2024-03-08T14:57:18;9.90;99.90
1626;DHT22;806;48.770;9.156;2024-03-08T14:59:46;9.90;99.90
1626;DHT22;806;48.770;9.156;2024-03-08T15:02:14;10.00;99.90
1626;DHT22;806;48.770;9.156;2024-03-08T15:04:52;9.90;99.90
1626;DHT22;806;48.770;9.156;2024-03-08T15:07:26;9.90;99.90
1626;DHT22;806;48.770;9.156;2024-03-08T15:09:55;9.90;99.90
1626;DHT22;806;48.770;9.156;2024-03-08T15:12:22;9.70;99.90
1626;DHT22;806;48.770;9.156;2024-03-08T15:14:53;9.80;99.90
1626;DHT22;806;48.770;9.156;2024-03-08T15:17:21;9.80;99.90
1626;DHT22;806;48.770;9.156;2024-03-08T15:19:48;10.00;99.90
1626;DHT22;806;48.770;9.156;2024-03-08T15:22:18;10.00;99.90
1626;DHT22;806;48.770;9.156;2024-03-08T15:24:44;10.10;99.90
1626;DHT22;806;48.770;9.156;2024-03-08T15:27:11;10.10;99.90
1626;DHT22;806;48.770;9.156;2024-03-08T15:29:38;10.10;99.90
1626;DHT22;806;48.770;9.156;2024-03-08T15:32:07;9.90;99.90
1626;DHT22;806;48.770;9.156;2024-03-08T15:34:35;9.90;99.90
1626;DHT22;806;48.770;9.156;2024-03-08T15:37:04;9.90;99.90
1626;DHT22;806;48.770;9.156;2024-03-08T15:39:32;9.90;99.90
1626;DHT22;806;48.770;9.156;2024-03-08T15:41:59;10.00;99.90
1626;DHT22;806;48.770;9.156;2024-03-08T15:44:31;10.00;99.90
1626;DHT22;806;48.770;9.156;2024-03-08T15:46:58;10.00;99.90
1626;DHT22;806;48.770;9.156;2024-03-08T15:49:30;10.00;99.90
1626;DHT22;806;48.770;9.156;2024-03-08T15:52:00;10.00;99.90
1626;DHT22;806;48.770;9.156;2024-03-08T15:54:27;10.00;99.90
1626;DHT22;806;48.770;9.156;2024-03-08T15:56:54;10.00;99.90
1626;DHT22;806;48.770;9.156;2024-03-08T15:59:21;10.00;99.90
1626;DHT22;806;48.770;9.156;2024-03-08T16:01:48;10.00;99.90
1626;DHT22;806;48.770;9.156;2024-03-08T16:04:16;10.10;99.90
1626;DHT22;806;48.770;9.156;2024-03-08T16:06:45;10.10;99.90
1626;DHT22;806;48.770;9.156;2024-03-08T16:09:12;10.10;99.90
1626;DHT22;806;48.770;9.156;2024-03-08T16:11:40;10.00;99.90
1626;DHT22;806;48.770;9.156;2024-03-08T16:14:08;10.00;99.90
1626;DHT22;806;48.770;9.156;2024-03-08T16:16:37;10.00;99.90
1626;DHT22;806;48.770;9.156;2024-03-08T16:19:05;10.00;99.90
1626;DHT22;806;48.770;9.156;2024-03-08T16:21:33;10.00;99.90
1626;DHT22;806;48.770;9.156;2024-03-08T16:24:01;9.90;99.90
1626;DHT22;806;48.770;9.156;2024-03-08T16:26:29;9.90;99.90
1626;DHT22;806;48.770;9.156;2024-03-08T16:29:00;9.80;99.90
1626;DHT22;806;48.770;9.156;2024-03-08T16:31:27;9.80;99.90
1626;DHT22;806;48.770;9.156;2024-03-08T16:33:54;9.80;99.90
1626;DHT22;806;48.770;9.156;2024-03-08T16:36:25;9.80;99.90
1626;DHT22;806;48.770;9.156;2024-03-08T16:38:52;9.80;99.90
1626;DHT22;806;48.770;9.156;2024-03-08T16:41:21;9.80;99.90
1626;DHT22;806;48.770;9.156;2024-03-08T16:43:48;9.80;99.90
1626;DHT22;806;48.770;9.156;2024-03-08T16:46:15;9.80;99.90
1626;DHT22;806;48.770;9.156;2024-03-08T16:48:42;9.80;99.90